sensor_id;sensor_type;location;lat;lon;timestamp;P1;durP1;ratioP1;P2;durP2;ratioP2
47021;SDS011;32779;52.264;6.154;2022-11-18T00:03:18;9.35;;;3.17;;
47021;SDS011;32779;52.264;6.154;2022-11-18T00:05:53;6.13;;;3.03;;
47021;SDS011;32779;52.264;6.154;2022-11-18T00:08:20;7.93;;;2.80;;
47021;SDS011;32779;52.264;6.154;2022-11-18T00:10:46;6.40;;;2.80;;
47021;SDS011;32779;52.264;6.154;2022-11-18T00:13:12;7.40;;;2.58;;
47021;SDS011;32779;52.264;6.154;2022-11-18T00:16:14;8.48;;;3.10;;
47021;SDS011;32779;52.264;6.154;2022-11-18T00:18:40;12.73;;;3.40;;
47021;SDS011;32779;52.264;6.154;2022-11-18T00:21:06;10.60;;;3.17;;
47021;SDS011;32779;52.264;6.154;2022-11-18T00:23:33;10.50;;;3.28;;
47021;SDS011;32779;52.264;6.154;2022-11-18T00:26:10;9.80;;;2.90;;
47021;SDS011;32779;52.264;6.154;2022-11-18T00:28:37;8.30;;;3.63;;
47021;SDS011;32779;52.264;6.154;2022-11-18T00:31:04;7.45;;;3.00;;
47021;SDS011;32779;52.264;6.154;2022-11-18T00:33:34;17.17;;;3.20;;
47021;SDS011;32779;52.264;6.154;2022-11-18T00:36:01;9.88;;;2.97;;
47021;SDS011;32779;52.264;6.154;2022-11-18T00:38:28;6.32;;;2.95;;
47021;SDS011;32779;52.264;6.154;2022-11-18T00:41:04;9.82;;;3.45;;
47021;SDS011;32779;52.264;6.154;2022-11-18T00:43:32;7.82;;;3.30;;
47021;SDS011;32779;52.264;6.154;2022-11-18T00:45:58;9.50;;;3.33;;
47021;SDS011;32779;52.264;6.154;2022-11-18T00:48:24;9.98;;;3.78;;
47021;SDS011;32779;52.264;6.154;2022-11-18T00:50:50;8.93;;;3.10;;
47021;SDS011;32779;52.264;6.154;2022-11-18T00:53:17;9.38;;;3.42;;
47021;SDS011;32779;52.264;6.154;2022-11-18T00:55:43;11.60;;;3.33;;
47021;SDS011;32779;52.264;6.154;2022-11-18T00:58:09;7.70;;;3.30;;
47021;SDS011;32779;52.264;6.154;2022-11-18T01:00:38;11.60;;;3.50;;
47021;SDS011;32779;52.264;6.154;2022-11-18T01:03:08;7.38;;;3.22;;
47021;SDS011;32779;52.264;6.154;2022-11-18T01:05:35;8.10;;;3.10;;
47021;SDS011;32779;52.264;6.154;2022-11-18T01:08:01;10.95;;;3.15;;
47021;SDS011;32779;52.264;6.154;2022-11-18T01:10:26;6.55;;;3.05;;
47021;SDS011;32779;52.264;6.154;2022-11-18T01:12:52;10.75;;;3.15;;
47021;SDS011;32779;52.264;6.154;2022-11-18T01:15:37;11.60;;;2.80;;
47021;SDS011;32779;52.264;6.154;2022-11-18T01:18:04;9.70;;;3.17;;
47021;SDS011;32779;52.264;6.154;2022-11-18T01:20:30;9.40;;;3.05;;
47021;SDS011;32779;52.264;6.154;2022-11-18T01:22:57;8.25;;;3.15;;
47021;SDS011;32779;52.264;6.154;2022-11-18T01:25:22;10.00;;;3.08;;
47021;SDS011;32779;52.264;6.154;2022-11-18T01:27:48;10.50;;;3.20;;
47021;SDS011;32779;52.264;6.154;2022-11-18T01:30:14;8.20;;;2.90;;
47021;SDS011;32779;52.264;6.154;2022-11-18T01:32:41;7.88;;;3.05;;
47021;SDS011;32779;52.264;6.154;2022-11-18T01:35:07;8.82;;;2.88;;
47021;SDS011;32779;52.264;6.154;2022-11-18T01:37:33;14.18;;;3.05;;
47021;SDS011;32779;52.264;6.154;2022-11-18T01:40:00;8.05;;;3.00;;
47021;SDS011;32779;52.264;6.154;2022-11-18T01:42:26;10.40;;;2.97;;
47021;SDS011;32779;52.264;6.154;2022-11-18T01:48:12;4.78;;;2.75;;
47021;SDS011;32779;52.264;6.154;2022-11-18T01:50:44;10.55;;;3.58;;
47021;SDS011;32779;52.264;6.154;2022-11-18T01:53:17;10.13;;;2.83;;
47021;SDS011;32779;52.264;6.154;2022-11-18T01:55:46;8.05;;;3.03;;
47021;SDS011;32779;52.264;6.154;2022-11-18T01:58:17;10.93;;;3.65;;
47021;SDS011;32779;52.264;6.154;2022-11-18T02:00:50;7.27;;;2.97;;
47021;SDS011;32779;52.264;6.154;2022-11-18T02:05:43;9.13;;;3.28;;
47021;SDS011;32779;52.264;6.154;2022-11-18T02:08:11;7.40;;;2.90;;
47021;SDS011;32779;52.264;6.154;2022-11-18T02:10:38;6.35;;;2.58;;
47021;SDS011;32779;52.264;6.154;2022-11-18T02:13:03;8.13;;;3.45;;
47021;SDS011;32779;52.264;6.154;2022-11-18T02:18:06;8.40;;;2.88;;
47021;SDS011;32779;52.264;6.154;2022-11-18T02:20:54;7.95;;;3.10;;
47021;SDS011;32779;52.264;6.154;2022-11-18T02:29:28;7.18;;;3.53;;
47021;SDS011;32779;52.264;6.154;2022-11-18T02:32:23;9.00;;;3.22;;
47021;SDS011;32779;52.264;6.154;2022-11-18T02:34:56;8.02;;;3.00;;
47021;SDS011;32779;52.264;6.154;2022-11-18T02:37:49;6.20;;;3.05;;
47021;SDS011;32779;52.264;6.154;2022-11-18T02:43:27;9.13;;;3.67;;
47021;SDS011;32779;52.264;6.154;2022-11-18T02:45:59;11.63;;;3.10;;
47021;SDS011;32779;52.264;6.154;2022-11-18T02:48:29;6.10;;;2.92;;
47021;SDS011;32779;52.264;6.154;2022-11-18T02:50:57;8.25;;;3.05;;
47021;SDS011;32779;52.264;6.154;2022-11-18T02:53:26;7.60;;;2.88;;
47021;SDS011;32779;52.264;6.154;2022-11-18T02:55:54;10.20;;;3.72;;
47021;SDS011;32779;52.264;6.154;2022-11-18T02:58:20;6.80;;;3.13;;
47021;SDS011;32779;52.264;6.154;2022-11-18T03:00:54;7.47;;;3.00;;
47021;SDS011;32779;52.264;6.154;2022-11-18T03:03:27;7.72;;;2.88;;
47021;SDS011;32779;52.264;6.154;2022-11-18T03:06:00;7.75;;;2.88;;
47021;SDS011;32779;52.264;6.154;2022-11-18T03:08:33;10.40;;;3.40;;
47021;SDS011;32779;52.264;6.154;2022-11-18T03:11:11;8.45;;;2.85;;
47021;SDS011;32779;52.264;6.154;2022-11-18T03:16:30;9.25;;;2.90;;
47021;SDS011;32779;52.264;6.154;2022-11-18T03:21:57;5.78;;;3.03;;
47021;SDS011;32779;52.264;6.154;2022-11-18T03:24:32;12.30;;;3.25;;
47021;SDS011;32779;52.264;6.154;2022-11-18T03:27:08;13.30;;;3.33;;
47021;SDS011;32779;52.264;6.154;2022-11-18T03:29:40;14.25;;;3.55;;
47021;SDS011;32779;52.264;6.154;2022-11-18T03:32:13;7.63;;;3.30;;
47021;SDS011;32779;52.264;6.154;2022-11-18T03:34:48;13.25;;;3.40;;
47021;SDS011;32779;52.264;6.154;2022-11-18T03:37:19;11.60;;;3.40;;
47021;SDS011;32779;52.264;6.154;2022-11-18T03:39:55;7.65;;;3.55;;
47021;SDS011;32779;52.264;6.154;2022-11-18T03:42:28;11.25;;;3.65;;
47021;SDS011;32779;52.264;6.154;2022-11-18T03:45:03;9.63;;;2.97;;
47021;SDS011;32779;52.264;6.154;2022-11-18T03:47:53;7.70;;;3.38;;
47021;SDS011;32779;52.264;6.154;2022-11-18T03:50:28;9.65;;;3.42;;
47021;SDS011;32779;52.264;6.154;2022-11-18T03:52:57;13.00;;;3.53;;
47021;SDS011;32779;52.264;6.154;2022-11-18T03:55:26;7.35;;;3.13;;
47021;SDS011;32779;52.264;6.154;2022-11-18T04:00:32;9.23;;;3.25;;
47021;SDS011;32779;52.264;6.154;2022-11-18T04:03:04;10.98;;;3.50;;
47021;SDS011;32779;52.264;6.154;2022-11-18T04:05:31;6.95;;;3.40;;
47021;SDS011;32779;52.264;6.154;2022-11-18T04:08:00;8.57;;;3.03;;
47021;SDS011;32779;52.264;6.154;2022-11-18T04:10:34;7.63;;;3.67;;
47021;SDS011;32779;52.264;6.154;2022-11-18T04:13:23;10.10;;;3.03;;
47021;SDS011;32779;52.264;6.154;2022-11-18T04:15:53;9.60;;;3.63;;
47021;SDS011;32779;52.264;6.154;2022-11-18T04:18:19;9.23;;;3.60;;
47021;SDS011;32779;52.264;6.154;2022-11-18T04:20:45;6.50;;;3.30;;
47021;SDS011;32779;52.264;6.154;2022-11-18T04:23:10;6.90;;;3.50;;
47021;SDS011;32779;52.264;6.154;2022-11-18T04:25:36;8.15;;;3.60;;
47021;SDS011;32779;52.264;6.154;2022-11-18T04:28:02;10.48;;;4.03;;
47021;SDS011;32779;52.264;6.154;2022-11-18T04:30:28;10.98;;;3.72;;
47021;SDS011;32779;52.264;6.154;2022-11-18T04:32:53;13.85;;;3.88;;
47021;SDS011;32779;52.264;6.154;2022-11-18T04:35:19;9.45;;;4.00;;
47021;SDS011;32779;52.264;6.154;2022-11-18T04:37:45;8.50;;;3.60;;
47021;SDS011;32779;52.264;6.154;2022-11-18T04:40:11;11.27;;;3.63;;
47021;SDS011;32779;52.264;6.154;2022-11-18T04:42:37;8.60;;;3.70;;
47021;SDS011;32779;52.264;6.154;2022-11-18T04:45:03;10.15;;;3.70;;
47021;SDS011;32779;52.264;6.154;2022-11-18T04:47:29;8.23;;;3.85;;
47021;SDS011;32779;52.264;6.154;2022-11-18T04:49:55;12.57;;;3.83;;
47021;SDS011;32779;52.264;6.154;2022-11-18T04:52:20;9.07;;;4.15;;
47021;SDS011;32779;52.264;6.154;2022-11-18T04:54:46;9.90;;;4.13;;
47021;SDS011;32779;52.264;6.154;2022-11-18T04:57:12;12.32;;;4.32;;
47021;SDS011;32779;52.264;6.154;2022-11-18T04:59:37;6.95;;;3.58;;
47021;SDS011;32779;52.264;6.154;2022-11-18T05:02:03;11.00;;;4.10;;
47021;SDS011;32779;52.264;6.154;2022-11-18T05:04:30;10.30;;;3.78;;
47021;SDS011;32779;52.264;6.154;2022-11-18T05:06:58;10.48;;;4.00;;
47021;SDS011;32779;52.264;6.154;2022-11-18T05:09:24;11.40;;;3.97;;
47021;SDS011;32779;52.264;6.154;2022-11-18T05:11:50;11.20;;;4.22;;
47021;SDS011;32779;52.264;6.154;2022-11-18T05:14:36;9.30;;;3.75;;
47021;SDS011;32779;52.264;6.154;2022-11-18T05:17:03;11.50;;;3.85;;
47021;SDS011;32779;52.264;6.154;2022-11-18T05:19:30;11.43;;;4.10;;
47021;SDS011;32779;52.264;6.154;2022-11-18T05:21:55;9.82;;;4.22;;
47021;SDS011;32779;52.264;6.154;2022-11-18T05:24:21;10.63;;;4.72;;
47021;SDS011;32779;52.264;6.154;2022-11-18T05:26:50;10.80;;;4.20;;
47021;SDS011;32779;52.264;6.154;2022-11-18T05:29:20;12.65;;;3.80;;
47021;SDS011;32779;52.264;6.154;2022-11-18T05:31:46;9.00;;;4.00;;
47021;SDS011;32779;52.264;6.154;2022-11-18T05:34:12;8.70;;;4.50;;
47021;SDS011;32779;52.264;6.154;2022-11-18T05:36:38;9.70;;;4.28;;
47021;SDS011;32779;52.264;6.154;2022-11-18T05:39:04;9.65;;;4.70;;
47021;SDS011;32779;52.264;6.154;2022-11-18T05:41:30;13.35;;;4.75;;
47021;SDS011;32779;52.264;6.154;2022-11-18T05:44:14;13.15;;;4.28;;
47021;SDS011;32779;52.264;6.154;2022-11-18T05:46:39;12.88;;;4.80;;
47021;SDS011;32779;52.264;6.154;2022-11-18T05:49:05;8.50;;;4.50;;
47021;SDS011;32779;52.264;6.154;2022-11-18T05:51:32;13.20;;;4.78;;
47021;SDS011;32779;52.264;6.154;2022-11-18T05:56:27;9.65;;;4.45;;
47021;SDS011;32779;52.264;6.154;2022-11-18T05:58:55;11.32;;;4.78;;
47021;SDS011;32779;52.264;6.154;2022-11-18T06:01:31;10.52;;;5.00;;
47021;SDS011;32779;52.264;6.154;2022-11-18T06:04:03;11.93;;;4.72;;
47021;SDS011;32779;52.264;6.154;2022-11-18T06:06:43;8.65;;;4.80;;
47021;SDS011;32779;52.264;6.154;2022-11-18T06:09:13;13.13;;;4.88;;
47021;SDS011;32779;52.264;6.154;2022-11-18T06:11:43;9.43;;;5.22;;
47021;SDS011;32779;52.264;6.154;2022-11-18T06:14:21;13.70;;;5.25;;
47021;SDS011;32779;52.264;6.154;2022-11-18T06:16:52;12.90;;;5.35;;
47021;SDS011;32779;52.264;6.154;2022-11-18T06:19:22;13.82;;;5.57;;
47021;SDS011;32779;52.264;6.154;2022-11-18T06:21:48;13.40;;;5.30;;
47021;SDS011;32779;52.264;6.154;2022-11-18T06:24:14;15.63;;;5.82;;
47021;SDS011;32779;52.264;6.154;2022-11-18T06:26:41;13.32;;;5.68;;
47021;SDS011;32779;52.264;6.154;2022-11-18T06:31:33;11.77;;;5.63;;
47021;SDS011;32779;52.264;6.154;2022-11-18T06:33:59;13.20;;;6.38;;
47021;SDS011;32779;52.264;6.154;2022-11-18T06:36:25;16.30;;;6.78;;
47021;SDS011;32779;52.264;6.154;2022-11-18T06:38:50;12.63;;;6.72;;
47021;SDS011;32779;52.264;6.154;2022-11-18T06:41:16;13.23;;;6.78;;
47021;SDS011;32779;52.264;6.154;2022-11-18T06:43:41;14.82;;;7.57;;
47021;SDS011;32779;52.264;6.154;2022-11-18T06:46:11;15.77;;;7.47;;
47021;SDS011;32779;52.264;6.154;2022-11-18T06:48:57;14.38;;;6.63;;
47021;SDS011;32779;52.264;6.154;2022-11-18T06:51:23;14.75;;;7.60;;
47021;SDS011;32779;52.264;6.154;2022-11-18T06:53:50;14.77;;;7.30;;
47021;SDS011;32779;52.264;6.154;2022-11-18T06:56:16;16.30;;;7.13;;
47021;SDS011;32779;52.264;6.154;2022-11-18T06:58:43;15.32;;;7.68;;
47021;SDS011;32779;52.264;6.154;2022-11-18T07:03:54;15.15;;;7.78;;
47021;SDS011;32779;52.264;6.154;2022-11-18T07:06:23;15.32;;;8.07;;
47021;SDS011;32779;52.264;6.154;2022-11-18T07:08:51;13.23;;;7.97;;
47021;SDS011;32779;52.264;6.154;2022-11-18T07:11:18;17.33;;;7.88;;
47021;SDS011;32779;52.264;6.154;2022-11-18T07:13:45;14.07;;;8.18;;
47021;SDS011;32779;52.264;6.154;2022-11-18T07:16:15;14.18;;;8.32;;
47021;SDS011;32779;52.264;6.154;2022-11-18T07:18:46;23.75;;;9.48;;
47021;SDS011;32779;52.264;6.154;2022-11-18T07:21:14;14.63;;;8.52;;
47021;SDS011;32779;52.264;6.154;2022-11-18T07:23:42;19.52;;;8.95;;
47021;SDS011;32779;52.264;6.154;2022-11-18T07:28:34;15.15;;;8.18;;
47021;SDS011;32779;52.264;6.154;2022-11-18T07:31:04;17.60;;;7.45;;
47021;SDS011;32779;52.264;6.154;2022-11-18T07:33:34;15.80;;;7.35;;
47021;SDS011;32779;52.264;6.154;2022-11-18T07:36:20;15.00;;;7.32;;
47021;SDS011;32779;52.264;6.154;2022-11-18T07:38:47;16.13;;;8.20;;
47021;SDS011;32779;52.264;6.154;2022-11-18T07:41:15;14.30;;;7.88;;
47021;SDS011;32779;52.264;6.154;2022-11-18T07:43:42;15.23;;;7.90;;
47021;SDS011;32779;52.264;6.154;2022-11-18T07:46:22;14.75;;;8.00;;
47021;SDS011;32779;52.264;6.154;2022-11-18T07:48:50;13.48;;;7.85;;
47021;SDS011;32779;52.264;6.154;2022-11-18T07:51:18;16.65;;;7.80;;
47021;SDS011;32779;52.264;6.154;2022-11-18T07:53:46;15.13;;;7.85;;
47021;SDS011;32779;52.264;6.154;2022-11-18T07:56:12;15.95;;;8.30;;
47021;SDS011;32779;52.264;6.154;2022-11-18T07:58:38;14.60;;;7.88;;
47021;SDS011;32779;52.264;6.154;2022-11-18T08:01:05;17.58;;;8.55;;
47021;SDS011;32779;52.264;6.154;2022-11-18T08:03:35;14.73;;;8.82;;
47021;SDS011;32779;52.264;6.154;2022-11-18T08:06:02;14.98;;;8.25;;
47021;SDS011;32779;52.264;6.154;2022-11-18T08:08:29;14.68;;;8.00;;
47021;SDS011;32779;52.264;6.154;2022-11-18T08:10:55;17.45;;;8.30;;
47021;SDS011;32779;52.264;6.154;2022-11-18T08:13:25;11.50;;;7.13;;
47021;SDS011;32779;52.264;6.154;2022-11-18T08:15:51;14.50;;;7.97;;
47021;SDS011;32779;52.264;6.154;2022-11-18T08:18:19;19.58;;;8.02;;
47021;SDS011;32779;52.264;6.154;2022-11-18T08:20:45;14.43;;;8.05;;
47021;SDS011;32779;52.264;6.154;2022-11-18T08:23:11;17.73;;;7.75;;
47021;SDS011;32779;52.264;6.154;2022-11-18T08:28:03;16.23;;;8.00;;
47021;SDS011;32779;52.264;6.154;2022-11-18T08:30:29;15.43;;;8.18;;
47021;SDS011;32779;52.264;6.154;2022-11-18T08:32:54;14.45;;;7.88;;
47021;SDS011;32779;52.264;6.154;2022-11-18T08:35:20;15.35;;;7.55;;
47021;SDS011;32779;52.264;6.154;2022-11-18T08:37:46;10.38;;;6.35;;
47021;SDS011;32779;52.264;6.154;2022-11-18T08:40:11;13.32;;;7.18;;
47021;SDS011;32779;52.264;6.154;2022-11-18T08:42:37;15.40;;;6.43;;
47021;SDS011;32779;52.264;6.154;2022-11-18T08:45:06;12.50;;;6.82;;
47021;SDS011;32779;52.264;6.154;2022-11-18T08:47:35;16.40;;;7.28;;
47021;SDS011;32779;52.264;6.154;2022-11-18T08:50:02;13.30;;;6.38;;
47021;SDS011;32779;52.264;6.154;2022-11-18T08:52:32;16.27;;;6.97;;
47021;SDS011;32779;52.264;6.154;2022-11-18T08:54:58;11.50;;;6.43;;
47021;SDS011;32779;52.264;6.154;2022-11-18T08:57:24;14.50;;;6.93;;
47021;SDS011;32779;52.264;6.154;2022-11-18T08:59:49;9.95;;;6.50;;
47021;SDS011;32779;52.264;6.154;2022-11-18T09:02:16;13.23;;;6.55;;
47021;SDS011;32779;52.264;6.154;2022-11-18T09:04:45;11.88;;;6.63;;
47021;SDS011;32779;52.264;6.154;2022-11-18T09:07:11;11.23;;;6.25;;
47021;SDS011;32779;52.264;6.154;2022-11-18T09:09:37;15.48;;;6.38;;
47021;SDS011;32779;52.264;6.154;2022-11-18T09:12:02;14.27;;;7.07;;
47021;SDS011;32779;52.264;6.154;2022-11-18T09:14:29;16.98;;;7.78;;
47021;SDS011;32779;52.264;6.154;2022-11-18T09:16:54;15.55;;;7.75;;
47021;SDS011;32779;52.264;6.154;2022-11-18T09:19:20;17.27;;;7.65;;
47021;SDS011;32779;52.264;6.154;2022-11-18T09:21:46;12.02;;;7.55;;
47021;SDS011;32779;52.264;6.154;2022-11-18T09:24:11;11.75;;;7.35;;
47021;SDS011;32779;52.264;6.154;2022-11-18T09:26:37;15.15;;;7.32;;
47021;SDS011;32779;52.264;6.154;2022-11-18T09:29:03;13.25;;;6.97;;
47021;SDS011;32779;52.264;6.154;2022-11-18T09:31:29;14.88;;;7.97;;
47021;SDS011;32779;52.264;6.154;2022-11-18T09:33:55;14.05;;;7.35;;
47021;SDS011;32779;52.264;6.154;2022-11-18T09:36:24;11.13;;;7.47;;
47021;SDS011;32779;52.264;6.154;2022-11-18T09:38:50;14.40;;;7.70;;
47021;SDS011;32779;52.264;6.154;2022-11-18T09:49:30;12.82;;;6.90;;
47021;SDS011;32779;52.264;6.154;2022-11-18T09:52:02;16.00;;;7.68;;
47021;SDS011;32779;52.264;6.154;2022-11-18T09:54:34;17.60;;;7.68;;
47021;SDS011;32779;52.264;6.154;2022-11-18T09:57:01;10.25;;;7.20;;
47021;SDS011;32779;52.264;6.154;2022-11-18T09:59:29;14.52;;;7.78;;
47021;SDS011;32779;52.264;6.154;2022-11-18T10:02:18;11.43;;;7.57;;
47021;SDS011;32779;52.264;6.154;2022-11-18T10:04:48;12.98;;;7.40;;
47021;SDS011;32779;52.264;6.154;2022-11-18T10:07:17;9.70;;;7.18;;
47021;SDS011;32779;52.264;6.154;2022-11-18T10:09:47;10.27;;;6.90;;
47021;SDS011;32779;52.264;6.154;2022-11-18T10:12:19;14.77;;;6.90;;
47021;SDS011;32779;52.264;6.154;2022-11-18T10:23:02;17.90;;;6.40;;
47021;SDS011;32779;52.264;6.154;2022-11-18T10:25:35;9.13;;;5.75;;
47021;SDS011;32779;52.264;6.154;2022-11-18T10:28:17;11.05;;;5.78;;
47021;SDS011;32779;52.264;6.154;2022-11-18T10:30:46;13.10;;;6.70;;
47021;SDS011;32779;52.264;6.154;2022-11-18T10:38:15;9.85;;;6.40;;
47021;SDS011;32779;52.264;6.154;2022-11-18T10:40:43;15.07;;;7.00;;
47021;SDS011;32779;52.264;6.154;2022-11-18T10:43:44;13.15;;;6.72;;
47021;SDS011;32779;52.264;6.154;2022-11-18T10:46:16;12.05;;;6.43;;
47021;SDS011;32779;52.264;6.154;2022-11-18T10:51:47;14.00;;;6.55;;
47021;SDS011;32779;52.264;6.154;2022-11-18T10:54:28;13.25;;;6.00;;
47021;SDS011;32779;52.264;6.154;2022-11-18T10:57:00;12.02;;;6.38;;
47021;SDS011;32779;52.264;6.154;2022-11-18T10:59:39;11.18;;;6.85;;
47021;SDS011;32779;52.264;6.154;2022-11-18T11:02:19;12.23;;;6.15;;
47021;SDS011;32779;52.264;6.154;2022-11-18T11:05:03;7.93;;;6.50;;
47021;SDS011;32779;52.264;6.154;2022-11-18T11:07:48;13.30;;;6.60;;
47021;SDS011;32779;52.264;6.154;2022-11-18T11:10:29;11.13;;;6.32;;
47021;SDS011;32779;52.264;6.154;2022-11-18T11:12:59;11.25;;;6.25;;
47021;SDS011;32779;52.264;6.154;2022-11-18T11:15:42;13.25;;;5.63;;
47021;SDS011;32779;52.264;6.154;2022-11-18T11:18:13;13.25;;;6.10;;
47021;SDS011;32779;52.264;6.154;2022-11-18T11:21:14;14.82;;;6.22;;
47021;SDS011;32779;52.264;6.154;2022-11-18T11:23:41;10.52;;;5.47;;
47021;SDS011;32779;52.264;6.154;2022-11-18T11:33:55;15.48;;;5.40;;
47021;SDS011;32779;52.264;6.154;2022-11-18T11:39:35;12.38;;;4.90;;
47021;SDS011;32779;52.264;6.154;2022-11-18T11:42:14;11.00;;;5.22;;
47021;SDS011;32779;52.264;6.154;2022-11-18T11:44:58;14.50;;;5.18;;
47021;SDS011;32779;52.264;6.154;2022-11-18T11:58:34;12.27;;;4.97;;
47021;SDS011;32779;52.264;6.154;2022-11-18T12:01:25;8.15;;;4.55;;
47021;SDS011;32779;52.264;6.154;2022-11-18T12:06:55;14.35;;;5.38;;
47021;SDS011;32779;52.264;6.154;2022-11-18T12:14:52;10.32;;;4.80;;
47021;SDS011;32779;52.264;6.154;2022-11-18T12:17:31;12.23;;;5.10;;
47021;SDS011;32779;52.264;6.154;2022-11-18T12:26:00;11.65;;;4.90;;
47021;SDS011;32779;52.264;6.154;2022-11-18T12:28:32;15.10;;;5.18;;
47021;SDS011;32779;52.264;6.154;2022-11-18T12:33:43;11.35;;;5.22;;
47021;SDS011;32779;52.264;6.154;2022-11-18T12:36:29;10.40;;;4.80;;
47021;SDS011;32779;52.264;6.154;2022-11-18T12:44:38;11.30;;;4.95;;
47021;SDS011;32779;52.264;6.154;2022-11-18T12:47:06;14.50;;;4.50;;
47021;SDS011;32779;52.264;6.154;2022-11-18T12:52:06;15.05;;;4.85;;
47021;SDS011;32779;52.264;6.154;2022-11-18T12:54:53;29.38;;;6.10;;
47021;SDS011;32779;52.264;6.154;2022-11-18T12:57:26;9.05;;;4.03;;
47021;SDS011;32779;52.264;6.154;2022-11-18T12:59:54;12.82;;;4.47;;
47021;SDS011;32779;52.264;6.154;2022-11-18T13:05:09;8.80;;;4.32;;
47021;SDS011;32779;52.264;6.154;2022-11-18T13:07:43;16.75;;;4.60;;
47021;SDS011;32779;52.264;6.154;2022-11-18T13:10:34;10.95;;;4.88;;
47021;SDS011;32779;52.264;6.154;2022-11-18T13:13:04;10.07;;;4.72;;
47021;SDS011;32779;52.264;6.154;2022-11-18T13:15:31;10.30;;;4.47;;
47021;SDS011;32779;52.264;6.154;2022-11-18T13:18:16;8.77;;;4.22;;
47021;SDS011;32779;52.264;6.154;2022-11-18T13:20:57;12.82;;;4.55;;
47021;SDS011;32779;52.264;6.154;2022-11-18T13:23:44;8.25;;;4.35;;
47021;SDS011;32779;52.264;6.154;2022-11-18T13:26:28;13.60;;;4.63;;
47021;SDS011;32779;52.264;6.154;2022-11-18T13:31:28;7.28;;;5.10;;
47021;SDS011;32779;52.264;6.154;2022-11-18T13:34:09;11.95;;;5.93;;
47021;SDS011;32779;52.264;6.154;2022-11-18T13:36:46;13.75;;;7.30;;
47021;SDS011;32779;52.264;6.154;2022-11-18T13:39:19;16.42;;;10.15;;
47021;SDS011;32779;52.264;6.154;2022-11-18T13:42:05;12.90;;;5.53;;
47021;SDS011;32779;52.264;6.154;2022-11-18T13:44:38;11.88;;;7.15;;
47021;SDS011;32779;52.264;6.154;2022-11-18T13:49:45;11.48;;;6.40;;
47021;SDS011;32779;52.264;6.154;2022-11-18T13:55:18;20.10;;;5.20;;
47021;SDS011;32779;52.264;6.154;2022-11-18T13:57:49;19.73;;;10.77;;
47021;SDS011;32779;52.264;6.154;2022-11-18T14:00:35;13.80;;;6.25;;
47021;SDS011;32779;52.264;6.154;2022-11-18T14:03:22;43.30;;;26.65;;
47021;SDS011;32779;52.264;6.154;2022-11-18T14:05:54;16.50;;;6.82;;
47021;SDS011;32779;52.264;6.154;2022-11-18T14:08:28;13.65;;;5.78;;
47021;SDS011;32779;52.264;6.154;2022-11-18T14:10:58;24.67;;;9.23;;
47021;SDS011;32779;52.264;6.154;2022-11-18T14:16:00;17.02;;;6.90;;
47021;SDS011;32779;52.264;6.154;2022-11-18T14:18:29;12.48;;;5.45;;
47021;SDS011;32779;52.264;6.154;2022-11-18T14:20:57;11.27;;;5.22;;
47021;SDS011;32779;52.264;6.154;2022-11-18T14:26:00;13.25;;;5.22;;
47021;SDS011;32779;52.264;6.154;2022-11-18T14:28:29;16.02;;;5.35;;
47021;SDS011;32779;52.264;6.154;2022-11-18T14:30:59;17.40;;;7.57;;
47021;SDS011;32779;52.264;6.154;2022-11-18T14:33:29;14.98;;;6.05;;
47021;SDS011;32779;52.264;6.154;2022-11-18T14:36:00;18.95;;;6.90;;
47021;SDS011;32779;52.264;6.154;2022-11-18T14:40:55;17.35;;;6.10;;
47021;SDS011;32779;52.264;6.154;2022-11-18T14:43:22;11.93;;;5.43;;
47021;SDS011;32779;52.264;6.154;2022-11-18T14:45:48;12.57;;;5.10;;
47021;SDS011;32779;52.264;6.154;2022-11-18T14:48:16;11.48;;;5.10;;
47021;SDS011;32779;52.264;6.154;2022-11-18T14:50:45;18.77;;;11.05;;
47021;SDS011;32779;52.264;6.154;2022-11-18T14:53:11;18.45;;;12.93;;
47021;SDS011;32779;52.264;6.154;2022-11-18T14:55:37;19.35;;;13.48;;
47021;SDS011;32779;52.264;6.154;2022-11-18T14:58:04;22.45;;;13.52;;
47021;SDS011;32779;52.264;6.154;2022-11-18T15:00:29;23.42;;;13.98;;
47021;SDS011;32779;52.264;6.154;2022-11-18T15:02:55;27.85;;;15.30;;
47021;SDS011;32779;52.264;6.154;2022-11-18T15:05:20;23.15;;;16.30;;
47021;SDS011;32779;52.264;6.154;2022-11-18T15:07:46;29.73;;;15.93;;
47021;SDS011;32779;52.264;6.154;2022-11-18T15:10:12;27.52;;;17.00;;
47021;SDS011;32779;52.264;6.154;2022-11-18T15:12:40;32.92;;;16.67;;
47021;SDS011;32779;52.264;6.154;2022-11-18T15:15:06;25.48;;;17.42;;
47021;SDS011;32779;52.264;6.154;2022-11-18T15:17:32;25.42;;;17.35;;
47021;SDS011;32779;52.264;6.154;2022-11-18T15:19:58;30.27;;;17.25;;
47021;SDS011;32779;52.264;6.154;2022-11-18T15:22:23;33.58;;;19.38;;
47021;SDS011;32779;52.264;6.154;2022-11-18T15:24:49;27.63;;;18.70;;
47021;SDS011;32779;52.264;6.154;2022-11-18T15:27:14;30.33;;;19.13;;
47021;SDS011;32779;52.264;6.154;2022-11-18T15:29:40;30.73;;;19.73;;
47021;SDS011;32779;52.264;6.154;2022-11-18T15:32:06;34.85;;;20.58;;
47021;SDS011;32779;52.264;6.154;2022-11-18T15:34:31;29.55;;;19.38;;
47021;SDS011;32779;52.264;6.154;2022-11-18T15:36:57;34.00;;;20.17;;
47021;SDS011;32779;52.264;6.154;2022-11-18T15:39:23;37.53;;;20.92;;
47021;SDS011;32779;52.264;6.154;2022-11-18T15:41:48;35.28;;;21.15;;
47021;SDS011;32779;52.264;6.154;2022-11-18T15:44:14;37.67;;;21.55;;
47021;SDS011;32779;52.264;6.154;2022-11-18T15:46:40;33.78;;;21.38;;
47021;SDS011;32779;52.264;6.154;2022-11-18T15:49:05;39.00;;;22.52;;
47021;SDS011;32779;52.264;6.154;2022-11-18T15:51:31;39.25;;;22.02;;
47021;SDS011;32779;52.264;6.154;2022-11-18T15:53:57;39.00;;;22.55;;
47021;SDS011;32779;52.264;6.154;2022-11-18T15:56:25;40.28;;;22.88;;
47021;SDS011;32779;52.264;6.154;2022-11-18T15:58:52;38.30;;;21.73;;
47021;SDS011;32779;52.264;6.154;2022-11-18T16:01:23;36.40;;;22.52;;
47021;SDS011;32779;52.264;6.154;2022-11-18T16:03:49;37.72;;;22.27;;
47021;SDS011;32779;52.264;6.154;2022-11-18T16:06:15;38.25;;;21.83;;
47021;SDS011;32779;52.264;6.154;2022-11-18T16:08:40;38.13;;;21.95;;
47021;SDS011;32779;52.264;6.154;2022-11-18T16:11:08;40.45;;;21.38;;
47021;SDS011;32779;52.264;6.154;2022-11-18T16:13:58;36.20;;;19.90;;
47021;SDS011;32779;52.264;6.154;2022-11-18T16:16:24;40.90;;;20.58;;
47021;SDS011;32779;52.264;6.154;2022-11-18T16:18:55;31.75;;;19.02;;
47021;SDS011;32779;52.264;6.154;2022-11-18T16:21:22;32.65;;;19.02;;
47021;SDS011;32779;52.264;6.154;2022-11-18T16:23:48;30.27;;;18.38;;
47021;SDS011;32779;52.264;6.154;2022-11-18T16:26:14;31.17;;;17.80;;
47021;SDS011;32779;52.264;6.154;2022-11-18T16:28:39;40.75;;;19.20;;
47021;SDS011;32779;52.264;6.154;2022-11-18T16:31:05;28.08;;;17.50;;
47021;SDS011;32779;52.264;6.154;2022-11-18T16:33:49;36.63;;;18.00;;
47021;SDS011;32779;52.264;6.154;2022-11-18T16:36:15;35.97;;;19.17;;
47021;SDS011;32779;52.264;6.154;2022-11-18T16:38:41;30.25;;;18.63;;
47021;SDS011;32779;52.264;6.154;2022-11-18T16:41:07;35.47;;;20.48;;
47021;SDS011;32779;52.264;6.154;2022-11-18T16:43:51;31.05;;;17.85;;
47021;SDS011;32779;52.264;6.154;2022-11-18T16:46:17;27.83;;;16.20;;
47021;SDS011;32779;52.264;6.154;2022-11-18T16:48:42;30.55;;;17.63;;
47021;SDS011;32779;52.264;6.154;2022-11-18T16:51:19;38.58;;;20.00;;
47021;SDS011;32779;52.264;6.154;2022-11-18T16:53:51;30.92;;;18.58;;
47021;SDS011;32779;52.264;6.154;2022-11-18T16:56:19;33.25;;;17.77;;
47021;SDS011;32779;52.264;6.154;2022-11-18T16:58:48;30.20;;;17.98;;
47021;SDS011;32779;52.264;6.154;2022-11-18T17:01:14;31.65;;;17.67;;
47021;SDS011;32779;52.264;6.154;2022-11-18T17:03:40;27.88;;;16.23;;